createdAt,value
2023-06-17T00:00:56.884Z,20.60
2023-06-17T00:03:24.069Z,20.60
2023-06-17T00:05:52.928Z,20.60
2023-06-17T00:08:21.652Z,20.50
2023-06-17T00:10:49.440Z,20.50
2023-06-17T00:13:22.627Z,20.40
2023-06-17T00:15:57.900Z,20.30
2023-06-17T00:18:26.226Z,20.30
2023-06-17T00:20:54.346Z,20.30
2023-06-17T00:23:22.012Z,20.30
2023-06-17T00:25:49.879Z,20.20
2023-06-17T00:28:17.375Z,20.30
2023-06-17T00:30:49.978Z,20.20
2023-06-17T00:33:16.899Z,20.20
2023-06-17T00:35:43.980Z,20.20
2023-06-17T00:38:11.037Z,20.20
2023-06-17T00:40:38.150Z,20.20
2023-06-17T00:43:05.441Z,20.20
2023-06-17T00:45:39.839Z,20.10
2023-06-17T00:48:08.997Z,20.00
2023-06-17T00:50:37.552Z,20.00
2023-06-17T00:53:05.402Z,20.20
2023-06-17T00:55:33.609Z,20.00
2023-06-17T00:58:01.887Z,19.90
2023-06-17T01:00:29.310Z,20.00
2023-06-17T01:02:57.902Z,19.90
2023-06-17T01:05:25.538Z,19.80
2023-06-17T01:08:20.891Z,19.80
2023-06-17T01:11:00.910Z,19.80
2023-06-17T01:13:29.337Z,19.90
2023-06-17T01:15:58.242Z,19.80
2023-06-17T01:18:29.483Z,19.80
2023-06-17T01:20:56.946Z,19.80
2023-06-17T01:23:32.724Z,19.80
2023-06-17T01:26:02.501Z,19.80
2023-06-17T01:28:30.545Z,19.80
2023-06-17T01:30:58.454Z,19.70
2023-06-17T01:33:26.568Z,19.70
2023-06-17T01:36:02.581Z,19.70
2023-06-17T01:38:43.166Z,19.60
2023-06-17T01:41:29.001Z,19.60
2023-06-17T01:43:57.548Z,19.50
2023-06-17T01:46:28.497Z,19.50
2023-06-17T01:48:56.203Z,19.60
2023-06-17T01:51:23.800Z,19.50
2023-06-17T01:53:51.784Z,19.50
2023-06-17T01:56:21.181Z,19.50
2023-06-17T01:58:48.085Z,19.40
2023-06-17T02:01:15.426Z,19.50
2023-06-17T02:03:43.627Z,19.50
2023-06-17T02:06:10.622Z,19.50
2023-06-17T02:08:38.484Z,19.50
2023-06-17T02:11:05.427Z,19.50
2023-06-17T02:13:32.305Z,19.50
2023-06-17T02:15:59.188Z,19.30
2023-06-17T02:18:26.533Z,19.30
2023-06-17T02:20:53.858Z,19.30
2023-06-17T02:23:21.150Z,19.20
2023-06-17T02:25:47.898Z,19.20
2023-06-17T02:28:14.972Z,19.20
2023-06-17T02:30:41.763Z,19.10
2023-06-17T02:33:08.600Z,19.10
2023-06-17T02:35:36.245Z,19.10
2023-06-17T02:38:03.796Z,19.10
2023-06-17T02:40:30.896Z,19.00
2023-06-17T02:42:57.721Z,19.00
2023-06-17T02:45:24.649Z,19.00
2023-06-17T02:47:52.123Z,18.90
2023-06-17T02:50:23.032Z,18.90
2023-06-17T02:52:57.475Z,18.90
2023-06-17T02:55:26.806Z,18.80
2023-06-17T02:57:54.241Z,18.80
2023-06-17T03:00:22.091Z,18.80
2023-06-17T03:02:50.177Z,18.70
2023-06-17T03:05:18.096Z,18.70
2023-06-17T03:07:46.950Z,18.70
2023-06-17T03:10:13.924Z,18.70
2023-06-17T03:12:41.037Z,18.70
2023-06-17T03:15:09.540Z,18.70
2023-06-17T03:17:36.808Z,18.70
2023-06-17T03:20:04.837Z,18.70
2023-06-17T03:22:31.860Z,18.70
2023-06-17T03:24:58.703Z,18.70
2023-06-17T03:27:25.638Z,18.60
2023-06-17T03:29:52.421Z,18.60
2023-06-17T03:32:19.282Z,18.60
2023-06-17T03:34:47.273Z,18.60
2023-06-17T03:37:14.176Z,18.60
2023-06-17T03:39:41.024Z,18.50
2023-06-17T03:42:09.301Z,18.50
2023-06-17T03:44:36.156Z,18.50
2023-06-17T03:47:04.185Z,18.50
2023-06-17T03:49:31.122Z,18.50
2023-06-17T03:51:57.982Z,18.60
2023-06-17T03:54:24.967Z,18.60
2023-06-17T03:56:51.858Z,18.50
2023-06-17T03:59:19.012Z,18.50
2023-06-17T04:01:45.876Z,18.50
2023-06-17T04:04:12.979Z,18.50
2023-06-17T04:06:41.410Z,18.50
2023-06-17T04:09:08.403Z,18.50
2023-06-17T04:11:35.358Z,18.50
2023-06-17T04:14:02.321Z,18.50
2023-06-17T04:16:31.932Z,18.50
2023-06-17T04:18:59.651Z,18.60
2023-06-17T04:21:27.003Z,18.60
2023-06-17T04:23:54.330Z,18.60
2023-06-17T04:26:21.351Z,18.60
2023-06-17T04:28:49.505Z,18.60
2023-06-17T04:31:16.621Z,18.60
2023-06-17T04:33:43.549Z,18.60
2023-06-17T04:36:10.601Z,18.60
2023-06-17T04:38:43.454Z,18.60
2023-06-17T04:41:10.327Z,18.60
2023-06-17T04:43:39.924Z,18.70
2023-06-17T04:46:07.483Z,18.70
2023-06-17T04:48:34.904Z,18.70
2023-06-17T04:51:01.863Z,18.70
2023-06-17T04:53:28.724Z,18.70
2023-06-17T04:55:55.617Z,18.80
2023-06-17T04:58:22.750Z,18.80
2023-06-17T05:00:49.686Z,18.80
2023-06-17T05:03:16.747Z,18.70
2023-06-17T05:05:43.598Z,18.90
2023-06-17T05:08:10.552Z,19.00
2023-06-17T05:10:37.340Z,19.00
2023-06-17T05:13:04.204Z,19.00
2023-06-17T05:15:31.009Z,19.10
2023-06-17T05:17:58.002Z,19.20
2023-06-17T05:20:24.851Z,19.20
2023-06-17T05:22:51.648Z,19.30
2023-06-17T05:25:18.512Z,19.30
2023-06-17T05:27:45.321Z,19.40
2023-06-17T05:30:12.380Z,19.50
2023-06-17T05:32:39.508Z,19.60
2023-06-17T05:35:06.814Z,19.70
2023-06-17T05:37:33.975Z,19.80
2023-06-17T05:40:00.950Z,19.90
2023-06-17T05:42:27.998Z,20.00
2023-06-17T05:44:54.869Z,20.00
2023-06-17T05:47:21.847Z,20.10
2023-06-17T05:49:48.817Z,21.00
2023-06-17T05:52:15.796Z,20.20
2023-06-17T05:54:42.581Z,20.30
2023-06-17T05:57:09.545Z,20.30
2023-06-17T05:59:36.953Z,20.30
2023-06-17T06:02:04.217Z,20.40
2023-06-17T06:04:31.366Z,20.40
2023-06-17T06:06:58.203Z,20.50
2023-06-17T06:09:25.321Z,20.50
2023-06-17T06:11:52.844Z,20.60
2023-06-17T06:14:19.738Z,21.00
2023-06-17T06:16:46.714Z,20.70
2023-06-17T06:19:13.790Z,20.80
2023-06-17T06:21:40.822Z,20.90
2023-06-17T06:24:08.191Z,21.00
2023-06-17T06:26:35.265Z,21.10
2023-06-17T06:29:02.378Z,21.10
2023-06-17T06:31:31.751Z,21.20
2023-06-17T06:33:58.934Z,21.30
2023-06-17T06:36:26.300Z,21.50
2023-06-17T06:38:53.473Z,21.60
2023-06-17T06:41:20.690Z,21.70
2023-06-17T06:43:47.951Z,21.90
2023-06-17T06:46:16.336Z,22.10
2023-06-17T06:48:43.727Z,22.30
2023-06-17T06:51:10.652Z,22.60
2023-06-17T06:53:37.574Z,22.80
2023-06-17T06:56:04.596Z,23.00
2023-06-17T06:58:33.900Z,23.30
2023-06-17T07:01:00.907Z,23.50
2023-06-17T07:03:28.252Z,23.60
2023-06-17T07:05:55.165Z,23.90
2023-06-17T07:08:22.112Z,24.10
2023-06-17T07:10:49.033Z,24.20
2023-06-17T07:13:18.445Z,24.30
2023-06-17T07:15:46.369Z,24.50
2023-06-17T07:18:16.038Z,24.70
2023-06-17T07:20:43.206Z,24.80
2023-06-17T07:23:10.214Z,25.00
2023-06-17T07:25:38.162Z,25.10
2023-06-17T07:28:06.969Z,25.20
2023-06-17T07:30:34.075Z,25.30
2023-06-17T07:33:01.291Z,25.40
2023-06-17T07:35:28.275Z,25.40
2023-06-17T07:37:55.141Z,25.50
2023-06-17T07:40:22.521Z,25.50
2023-06-17T07:42:49.881Z,25.60
2023-06-17T07:45:17.056Z,25.60
2023-06-17T07:47:43.996Z,25.70
2023-06-17T07:50:11.397Z,25.80
2023-06-17T07:52:38.642Z,25.90
2023-06-17T07:55:08.369Z,25.90
2023-06-17T07:57:35.608Z,26.00
2023-06-17T08:00:02.818Z,26.00
2023-06-17T08:02:29.789Z,26.00
2023-06-17T08:04:56.778Z,26.10
2023-06-17T08:07:23.640Z,26.10
2023-06-17T08:09:50.505Z,26.10
2023-06-17T08:12:17.369Z,26.20
2023-06-17T08:14:44.339Z,26.20
2023-06-17T08:17:11.211Z,26.30
2023-06-17T08:19:38.329Z,26.30
2023-06-17T08:22:05.631Z,26.40
2023-06-17T08:24:32.712Z,26.50
2023-06-17T08:26:59.969Z,26.50
2023-06-17T08:29:27.361Z,26.50
2023-06-17T08:31:54.851Z,26.50
2023-06-17T08:34:25.217Z,26.60
2023-06-17T08:36:55.924Z,26.50
2023-06-17T08:39:23.108Z,26.60
2023-06-17T08:41:51.028Z,26.60
2023-06-17T08:44:22.739Z,26.60
2023-06-17T08:46:52.628Z,26.60
2023-06-17T08:49:20.264Z,26.60
2023-06-17T08:51:50.329Z,26.60
2023-06-17T08:54:18.196Z,26.60
2023-06-17T08:56:46.186Z,26.50
2023-06-17T08:59:13.226Z,26.50
2023-06-17T09:01:41.482Z,26.50
2023-06-17T09:04:08.778Z,26.50
2023-06-17T09:06:35.669Z,26.60
2023-06-17T09:09:02.595Z,26.60
2023-06-17T09:11:32.117Z,26.60
2023-06-17T09:14:01.298Z,26.60
2023-06-17T09:16:36.979Z,26.60
2023-06-17T09:19:10.151Z,26.70
2023-06-17T09:21:38.107Z,26.60
2023-06-17T09:24:06.862Z,26.60
2023-06-17T09:26:35.625Z,26.50
2023-06-17T09:29:07.828Z,26.50
2023-06-17T09:31:48.448Z,26.50
2023-06-17T09:34:16.208Z,26.50
2023-06-17T09:36:43.357Z,26.50
2023-06-17T09:39:12.263Z,26.50
2023-06-17T09:41:43.800Z,26.50
2023-06-17T09:44:11.772Z,26.50
2023-06-17T09:46:41.155Z,26.50
2023-06-17T09:49:17.630Z,26.40
2023-06-17T09:51:45.194Z,26.50
2023-06-17T09:54:12.109Z,26.50
2023-06-17T09:56:39.112Z,26.40
2023-06-17T09:59:08.575Z,26.40
2023-06-17T10:01:40.820Z,26.50
2023-06-17T10:04:08.701Z,26.40
2023-06-17T10:06:37.955Z,26.40
2023-06-17T10:09:07.445Z,26.50
2023-06-17T10:11:36.308Z,26.60
2023-06-17T10:14:08.256Z,26.60
2023-06-17T10:16:39.812Z,26.70
2023-06-17T10:19:09.243Z,26.70
2023-06-17T10:21:40.626Z,26.60
2023-06-17T10:24:08.990Z,26.70
2023-06-17T10:26:36.268Z,26.70
2023-06-17T10:29:08.367Z,26.60
2023-06-17T10:31:43.901Z,26.60
2023-06-17T10:34:23.679Z,26.60
2023-06-17T10:36:54.961Z,26.60
2023-06-17T10:39:21.956Z,26.60
2023-06-17T10:41:53.565Z,26.60
2023-06-17T10:44:42.708Z,26.60
2023-06-17T10:47:23.571Z,26.40
2023-06-17T10:49:52.968Z,26.30
2023-06-17T10:52:20.602Z,26.20
2023-06-17T10:54:56.793Z,26.10
2023-06-17T10:57:34.184Z,26.20
2023-06-17T11:00:11.920Z,26.30
2023-06-17T11:02:40.059Z,26.30
2023-06-17T11:05:08.324Z,26.30
2023-06-17T11:07:35.656Z,26.30
2023-06-17T11:10:03.604Z,26.40
2023-06-17T11:12:31.208Z,26.40
2023-06-17T11:15:01.504Z,26.40
2023-06-17T11:17:28.720Z,26.50
2023-06-17T11:19:56.440Z,26.50
2023-06-17T11:22:23.878Z,26.50
2023-06-17T11:24:50.798Z,26.40
2023-06-17T11:27:18.734Z,26.30
2023-06-17T11:29:48.116Z,26.30
2023-06-17T11:32:15.239Z,26.20
2023-06-17T11:34:42.765Z,26.20
2023-06-17T11:37:12.443Z,26.20
2023-06-17T11:39:40.078Z,26.30
2023-06-17T11:42:08.454Z,26.30
2023-06-17T11:44:36.418Z,26.30
2023-06-17T11:47:08.447Z,26.20
2023-06-17T11:49:36.068Z,26.20
2023-06-17T11:52:07.059Z,26.30
2023-06-17T11:54:34.199Z,26.40
2023-06-17T11:57:01.419Z,26.50
2023-06-17T11:59:29.693Z,26.70
2023-06-17T12:01:57.084Z,26.70
2023-06-17T12:04:24.585Z,26.70
2023-06-17T12:06:51.445Z,26.60
2023-06-17T12:09:18.284Z,26.60
2023-06-17T12:11:46.077Z,26.60
2023-06-17T12:14:14.039Z,26.60
2023-06-17T12:16:44.702Z,26.70
2023-06-17T12:19:21.993Z,26.80
2023-06-17T12:21:49.083Z,26.70
2023-06-17T12:24:17.027Z,26.70
2023-06-17T12:26:45.274Z,26.70
2023-06-17T12:29:24.493Z,26.70
2023-06-17T12:31:52.650Z,26.80
2023-06-17T12:34:19.590Z,26.80
2023-06-17T12:36:46.556Z,26.80
2023-06-17T12:39:13.810Z,26.70
2023-06-17T12:41:40.637Z,26.70
2023-06-17T12:44:07.504Z,26.60
2023-06-17T12:46:36.822Z,26.70
2023-06-17T12:49:04.368Z,26.80
2023-06-17T12:51:31.463Z,26.90
2023-06-17T12:53:58.366Z,27.00
2023-06-17T12:56:25.580Z,27.00
2023-06-17T12:59:14.070Z,26.90
2023-06-17T13:01:42.411Z,26.80
2023-06-17T13:04:09.742Z,26.70
2023-06-17T13:06:38.157Z,26.70
2023-06-17T13:09:05.214Z,26.70
2023-06-17T13:11:32.355Z,26.90
2023-06-17T13:13:59.290Z,27.10
2023-06-17T13:16:26.281Z,27.10
2023-06-17T13:18:54.413Z,27.10
2023-06-17T13:21:22.079Z,27.20
2023-06-17T13:23:49.589Z,27.20
2023-06-17T13:26:18.587Z,27.20
2023-06-17T13:28:45.473Z,27.20
2023-06-17T13:31:12.719Z,27.30
2023-06-17T13:33:39.501Z,27.20
2023-06-17T13:36:06.692Z,27.30
2023-06-17T13:38:33.468Z,27.30
2023-06-17T13:41:00.734Z,27.40
2023-06-17T13:43:27.765Z,27.50
2023-06-17T13:45:55.098Z,27.40
2023-06-17T13:48:22.380Z,27.60
2023-06-17T13:50:49.727Z,27.80
2023-06-17T13:53:16.988Z,27.90
2023-06-17T13:55:43.931Z,28.00
2023-06-17T13:58:11.156Z,28.00
2023-06-17T14:00:38.155Z,28.00
2023-06-17T14:03:05.094Z,28.10
2023-06-17T14:05:32.033Z,28.20
2023-06-17T14:07:59.035Z,28.00
2023-06-17T14:10:25.924Z,28.00
2023-06-17T14:12:53.023Z,27.90
2023-06-17T14:15:19.900Z,27.70
2023-06-17T14:17:46.902Z,27.70
2023-06-17T14:20:13.908Z,27.60
2023-06-17T14:22:40.737Z,27.60
2023-06-17T14:25:09.149Z,27.60
2023-06-17T14:27:40.006Z,27.70
2023-06-17T14:30:14.964Z,27.60
2023-06-17T14:32:46.721Z,27.50
2023-06-17T14:35:17.561Z,27.40
2023-06-17T14:37:46.597Z,27.30
2023-06-17T14:40:14.551Z,27.70
2023-06-17T14:42:42.038Z,27.40
2023-06-17T14:45:11.507Z,27.40
2023-06-17T14:47:42.498Z,27.50
2023-06-17T14:50:13.907Z,27.40
2023-06-17T14:52:42.589Z,27.50
2023-06-17T14:55:10.075Z,27.50
2023-06-17T14:57:37.423Z,27.40
2023-06-17T15:00:04.867Z,27.40
2023-06-17T15:02:49.225Z,27.30
2023-06-17T15:05:17.634Z,27.30
2023-06-17T15:07:44.623Z,27.20
2023-06-17T15:10:12.077Z,27.20
2023-06-17T15:12:42.858Z,27.10
2023-06-17T15:15:11.796Z,27.10
2023-06-17T15:17:39.362Z,27.10
2023-06-17T15:20:06.978Z,27.20
2023-06-17T15:22:34.001Z,27.20
2023-06-17T15:25:00.906Z,27.20
2023-06-17T15:27:27.788Z,27.40
2023-06-17T15:29:54.708Z,27.40
2023-06-17T15:32:23.389Z,27.50
2023-06-17T15:34:50.697Z,27.60
2023-06-17T15:37:17.742Z,27.60
2023-06-17T15:39:45.212Z,27.70
2023-06-17T15:42:13.066Z,27.60
2023-06-17T15:44:40.034Z,27.60
2023-06-17T15:47:07.072Z,27.50
2023-06-17T15:49:35.895Z,27.50
2023-06-17T15:52:04.151Z,27.50
2023-06-17T15:54:31.274Z,27.50
2023-06-17T15:56:58.425Z,27.60
2023-06-17T15:59:27.207Z,27.70
2023-06-17T16:01:54.510Z,27.70
2023-06-17T16:04:33.486Z,27.60
2023-06-17T16:07:05.020Z,27.70
2023-06-17T16:09:34.259Z,27.80
2023-06-17T16:12:01.739Z,27.70
2023-06-17T16:14:29.985Z,27.60
2023-06-17T16:16:57.172Z,27.50
2023-06-17T16:19:26.569Z,27.40
2023-06-17T16:21:55.132Z,27.50
2023-06-17T16:24:23.030Z,27.40
2023-06-17T16:26:50.557Z,27.50
2023-06-17T16:29:18.384Z,27.60
2023-06-17T16:31:46.070Z,27.60
2023-06-17T16:34:13.493Z,27.60
2023-06-17T16:36:40.990Z,27.60
2023-06-17T16:39:10.118Z,27.70
2023-06-17T16:41:39.074Z,27.70
2023-06-17T16:44:06.014Z,27.60
2023-06-17T16:46:32.962Z,27.60
2023-06-17T16:48:59.908Z,27.50
2023-06-17T16:51:27.149Z,27.50
2023-06-17T16:53:54.020Z,27.50
2023-06-17T16:56:20.986Z,27.60
2023-06-17T16:58:47.820Z,27.50
2023-06-17T17:01:14.787Z,27.40
2023-06-17T17:03:41.667Z,27.30
2023-06-17T17:06:09.576Z,27.10
2023-06-17T17:08:36.537Z,27.00
2023-06-17T17:11:03.665Z,26.90
2023-06-17T17:13:43.499Z,26.90
2023-06-17T17:16:14.547Z,26.90
2023-06-17T17:18:41.549Z,26.90
2023-06-17T17:21:08.434Z,26.90
2023-06-17T17:23:35.325Z,27.00
2023-06-17T17:26:02.186Z,27.10
2023-06-17T17:28:29.292Z,27.10
2023-06-17T17:30:56.412Z,27.10
2023-06-17T17:33:24.528Z,27.00
2023-06-17T17:35:51.890Z,27.00
2023-06-17T17:38:18.752Z,26.90
2023-06-17T17:40:45.753Z,26.70
2023-06-17T17:43:12.594Z,26.60
2023-06-17T17:45:39.498Z,26.50
2023-06-17T17:48:06.416Z,26.50
2023-06-17T17:50:34.443Z,26.50
2023-06-17T17:53:01.564Z,26.50
2023-06-17T17:55:28.838Z,26.50
2023-06-17T17:57:55.817Z,26.50
2023-06-17T18:00:24.533Z,26.50
2023-06-17T18:02:51.800Z,26.50
2023-06-17T18:05:18.720Z,26.40
2023-06-17T18:07:47.602Z,26.30
2023-06-17T18:10:16.682Z,26.30
2023-06-17T18:12:43.975Z,26.20
2023-06-17T18:15:12.639Z,26.10
2023-06-17T18:17:39.547Z,26.10
2023-06-17T18:20:09.601Z,26.00
2023-06-17T18:22:38.056Z,26.00
2023-06-17T18:25:06.488Z,26.10
2023-06-17T18:27:36.496Z,26.10
2023-06-17T18:30:05.176Z,26.10
2023-06-17T18:32:32.599Z,26.00
2023-06-17T18:34:59.643Z,26.00
2023-06-17T18:37:27.164Z,26.00
2023-06-17T18:39:54.065Z,25.90
2023-06-17T18:42:20.914Z,25.90
2023-06-17T18:44:48.381Z,25.80
2023-06-17T18:47:15.420Z,25.80
2023-06-17T18:49:43.049Z,25.70
2023-06-17T18:52:10.012Z,25.70
2023-06-17T18:54:36.912Z,25.70
2023-06-17T18:57:04.218Z,25.60
2023-06-17T18:59:31.668Z,25.60
2023-06-17T19:01:58.680Z,25.50
2023-06-17T19:04:25.716Z,25.60
2023-06-17T19:06:52.706Z,25.60
2023-06-17T19:09:19.700Z,25.60
2023-06-17T19:11:46.810Z,25.50
2023-06-17T19:14:13.783Z,25.50
2023-06-17T19:16:40.774Z,25.50
2023-06-17T19:19:07.686Z,25.50
2023-06-17T19:21:34.957Z,25.50
2023-06-17T19:24:01.842Z,25.40
2023-06-17T19:26:28.784Z,25.40
2023-06-17T19:28:55.752Z,25.30
2023-06-17T19:31:22.887Z,25.40
2023-06-17T19:33:49.773Z,25.30
2023-06-17T19:36:16.902Z,25.30
2023-06-17T19:38:43.994Z,25.30
2023-06-17T19:41:11.082Z,25.20
2023-06-17T19:43:38.005Z,25.20
2023-06-17T19:46:05.064Z,25.20
2023-06-17T19:48:32.504Z,25.20
2023-06-17T19:51:02.597Z,25.10
2023-06-17T19:53:29.642Z,25.10
2023-06-17T19:55:56.750Z,25.10
2023-06-17T19:58:23.862Z,25.10
2023-06-17T20:00:50.956Z,25.00
2023-06-17T20:03:18.067Z,24.90
2023-06-17T20:05:46.381Z,24.90
2023-06-17T20:08:14.530Z,24.90
2023-06-17T20:10:42.499Z,24.80
2023-06-17T20:13:09.947Z,24.80
2023-06-17T20:15:38.134Z,24.80
2023-06-17T20:18:05.609Z,24.70
2023-06-17T20:20:33.319Z,24.70
2023-06-17T20:23:00.367Z,24.60
2023-06-17T20:25:27.317Z,24.60
2023-06-17T20:27:54.254Z,24.50
2023-06-17T20:30:21.338Z,24.50
2023-06-17T20:32:48.678Z,24.50
2023-06-17T20:35:15.794Z,24.40
2023-06-17T20:37:43.528Z,24.40
2023-06-17T20:40:10.681Z,24.30
2023-06-17T20:42:38.035Z,24.20
2023-06-17T20:45:08.169Z,24.10
2023-06-17T20:47:35.197Z,24.10
2023-06-17T20:50:02.263Z,24.00
2023-06-17T20:52:29.310Z,23.90
2023-06-17T20:54:56.197Z,23.80
2023-06-17T20:57:23.011Z,23.80
2023-06-17T20:59:50.625Z,23.70
2023-06-17T21:02:18.916Z,23.60
2023-06-17T21:04:45.972Z,23.60
2023-06-17T21:07:12.843Z,23.50
2023-06-17T21:09:40.536Z,23.50
2023-06-17T21:12:07.622Z,23.50
2023-06-17T21:14:34.502Z,23.40
2023-06-17T21:17:01.444Z,23.30
2023-06-17T21:19:28.318Z,23.30
2023-06-17T21:21:55.422Z,23.30
2023-06-17T21:24:22.406Z,23.30
2023-06-17T21:26:49.285Z,23.30
2023-06-17T21:29:16.123Z,23.20
2023-06-17T21:31:43.149Z,23.20
2023-06-17T21:34:10.204Z,23.10
2023-06-17T21:36:37.070Z,23.00
2023-06-17T21:39:03.990Z,23.00
2023-06-17T21:41:30.793Z,23.00
2023-06-17T21:43:57.734Z,23.00
2023-06-17T21:46:27.716Z,23.00
2023-06-17T21:48:56.136Z,22.90
2023-06-17T21:51:23.238Z,22.80
2023-06-17T21:53:50.185Z,22.70
2023-06-17T21:56:18.029Z,22.70
2023-06-17T21:58:44.962Z,22.70
2023-06-17T22:01:11.919Z,22.60
2023-06-17T22:03:41.201Z,22.60
2023-06-17T22:06:08.799Z,22.50
2023-06-17T22:08:42.761Z,22.50
2023-06-17T22:11:12.166Z,22.50
2023-06-17T22:13:39.349Z,22.50
2023-06-17T22:16:06.492Z,22.40
2023-06-17T22:18:33.400Z,22.30
2023-06-17T22:21:00.258Z,22.20
2023-06-17T22:23:27.226Z,22.20
2023-06-17T22:25:54.132Z,22.10
2023-06-17T22:28:21.222Z,22.10
2023-06-17T22:30:48.137Z,22.00
2023-06-17T22:33:15.026Z,22.10
2023-06-17T22:35:42.128Z,22.00
2023-06-17T22:38:09.028Z,22.00
2023-06-17T22:40:35.990Z,22.00
2023-06-17T22:43:03.002Z,21.90
2023-06-17T22:45:29.878Z,22.00
2023-06-17T22:47:56.970Z,22.00
2023-06-17T22:50:24.363Z,21.90
2023-06-17T22:52:51.818Z,21.80
2023-06-17T22:55:18.780Z,21.80
2023-06-17T22:57:45.623Z,21.80
2023-06-17T23:00:13.228Z,21.70
2023-06-17T23:02:40.183Z,21.70
2023-06-17T23:05:07.458Z,21.70
2023-06-17T23:07:34.361Z,21.60
2023-06-17T23:10:01.352Z,21.60
2023-06-17T23:12:28.221Z,21.60
2023-06-17T23:14:55.039Z,21.60
2023-06-17T23:17:22.489Z,21.60
2023-06-17T23:19:49.487Z,21.60
2023-06-17T23:22:17.405Z,21.50
2023-06-17T23:24:47.510Z,21.50
2023-06-17T23:27:16.404Z,21.40
2023-06-17T23:29:43.323Z,21.40
2023-06-17T23:32:10.211Z,21.40
2023-06-17T23:34:37.381Z,21.40
2023-06-17T23:37:04.595Z,21.30
2023-06-17T23:39:31.471Z,21.30
2023-06-17T23:41:58.307Z,21.30
2023-06-17T23:44:26.105Z,21.30
2023-06-17T23:46:53.010Z,21.20
2023-06-17T23:49:19.975Z,21.00
2023-06-17T23:51:47.051Z,21.00
2023-06-17T23:54:13.963Z,21.00
2023-06-17T23:56:41.078Z,21.00
2023-06-17T23:59:08.220Z,20.90
